createdAt,value
2022-09-02T00:02:29.410Z,91.69
2022-09-02T00:04:57.902Z,91.75
2022-09-02T00:07:26.365Z,92.05
2022-09-02T00:09:54.881Z,92.19
2022-09-02T00:12:23.329Z,92.47
2022-09-02T00:14:51.696Z,93.04
2022-09-02T00:17:20.046Z,92.73
2022-09-02T00:19:50.974Z,92.57
2022-09-02T00:22:22.484Z,93.27
2022-09-02T00:24:50.896Z,92.93
2022-09-02T00:27:19.280Z,92.66
2022-09-02T00:29:48.533Z,93.05
2022-09-02T00:32:16.961Z,93.75
2022-09-02T00:34:45.732Z,93.06
2022-09-02T00:37:14.197Z,93.10
2022-09-02T00:39:42.854Z,93.46
2022-09-02T00:42:19.670Z,93.00
2022-09-02T00:44:48.469Z,93.30
2022-09-02T00:47:17.834Z,92.95
2022-09-02T00:49:52.551Z,92.82
2022-09-02T00:52:29.988Z,92.88
2022-09-02T00:55:05.686Z,92.51
2022-09-02T00:57:39.527Z,92.36
2022-09-02T01:00:22.245Z,92.44
2022-09-02T01:02:56.925Z,92.82
2022-09-02T01:05:29.992Z,93.23
2022-09-02T01:07:59.261Z,93.10
2022-09-02T01:10:34.476Z,92.71
2022-09-02T01:13:07.619Z,92.30
2022-09-02T01:15:40.969Z,92.96
2022-09-02T01:18:13.800Z,93.08
2022-09-02T01:20:42.749Z,93.05
2022-09-02T01:23:11.949Z,93.20
2022-09-02T01:25:40.557Z,93.55
2022-09-02T01:28:11.533Z,93.48
2022-09-02T01:30:47.679Z,92.96
2022-09-02T01:33:17.549Z,94.00
2022-09-02T01:35:47.174Z,94.12
2022-09-02T01:38:16.067Z,93.73
2022-09-02T01:40:44.771Z,94.62
2022-09-02T01:43:21.437Z,94.71
2022-09-02T01:45:54.648Z,94.54
2022-09-02T01:48:25.585Z,94.67
2022-09-02T01:51:01.988Z,94.42
2022-09-02T01:53:30.941Z,94.67
2022-09-02T01:56:00.632Z,95.10
2022-09-02T01:58:32.355Z,95.39
2022-09-02T02:01:00.922Z,95.01
2022-09-02T02:03:30.834Z,95.29
2022-09-02T02:06:00.827Z,94.70
2022-09-02T02:08:30.432Z,95.24
2022-09-02T02:11:01.332Z,95.25
2022-09-02T02:13:31.288Z,95.44
2022-09-02T02:15:59.974Z,95.54
2022-09-02T02:18:29.863Z,95.67
2022-09-02T02:20:58.150Z,96.07
2022-09-02T02:23:26.688Z,95.72
2022-09-02T02:25:55.033Z,95.98
2022-09-02T02:28:23.353Z,96.18
2022-09-02T02:30:51.799Z,96.45
2022-09-02T02:33:30.485Z,96.64
2022-09-02T02:36:07.504Z,96.57
2022-09-02T02:38:38.016Z,96.21
2022-09-02T02:41:08.321Z,96.75
2022-09-02T02:43:37.665Z,96.30
2022-09-02T02:46:07.123Z,97.08
2022-09-02T02:48:36.619Z,96.99
2022-09-02T02:51:06.314Z,96.86
2022-09-02T02:53:37.005Z,96.45
2022-09-02T02:56:06.066Z,97.10
2022-09-02T02:58:34.789Z,97.44
2022-09-02T03:01:03.620Z,97.63
2022-09-02T03:03:32.633Z,97.54
2022-09-02T03:06:02.934Z,96.91
2022-09-02T03:08:32.090Z,97.16
2022-09-02T03:11:01.861Z,97.43
2022-09-02T03:13:32.912Z,97.34
2022-09-02T03:16:04.115Z,98.37
2022-09-02T03:18:34.852Z,97.98
2022-09-02T03:21:08.241Z,98.07
2022-09-02T03:23:37.119Z,97.90
2022-09-02T03:26:11.123Z,98.55
2022-09-02T03:28:40.449Z,98.93
2022-09-02T03:31:18.611Z,98.85
2022-09-02T03:33:47.675Z,99.08
2022-09-02T03:36:32.433Z,99.28
2022-09-02T03:39:02.067Z,99.03
2022-09-02T03:41:31.246Z,99.82
2022-09-02T03:44:02.107Z,99.71
2022-09-02T03:46:31.587Z,100.00
2022-09-02T03:49:00.244Z,100.00
2022-09-02T03:51:28.990Z,100.00
2022-09-02T03:53:57.746Z,100.00
2022-09-02T03:56:27.360Z,100.00
2022-09-02T03:58:57.528Z,100.00
2022-09-02T04:01:29.083Z,100.00
2022-09-02T04:04:06.864Z,100.00
2022-09-02T04:06:37.664Z,100.00
2022-09-02T04:09:07.953Z,100.00
2022-09-02T04:11:42.841Z,100.00
2022-09-02T04:14:13.843Z,100.00
2022-09-02T04:16:42.498Z,100.00
2022-09-02T04:19:11.088Z,100.00
2022-09-02T04:21:42.193Z,100.00
2022-09-02T04:24:11.881Z,100.00
2022-09-02T04:26:45.083Z,100.00
2022-09-02T04:29:15.810Z,100.00
2022-09-02T04:31:45.799Z,100.00
2022-09-02T04:34:14.381Z,100.00
2022-09-02T04:36:43.953Z,100.00
2022-09-02T04:39:13.848Z,100.00
2022-09-02T04:41:42.626Z,100.00
2022-09-02T04:44:13.510Z,100.00
2022-09-02T04:46:45.565Z,100.00
2022-09-02T04:49:19.669Z,100.00
2022-09-02T04:51:50.706Z,100.00
2022-09-02T04:54:19.294Z,100.00
2022-09-02T04:56:50.907Z,100.00
2022-09-02T04:59:21.348Z,100.00
2022-09-02T05:02:12.161Z,100.00
2022-09-02T05:04:41.671Z,100.00
2022-09-02T05:07:18.330Z,100.00
2022-09-02T05:09:50.416Z,100.00
2022-09-02T05:12:19.323Z,100.00
2022-09-02T05:14:53.913Z,100.00
2022-09-02T05:17:24.591Z,100.00
2022-09-02T05:19:53.386Z,100.00
2022-09-02T05:22:22.614Z,100.00
2022-09-02T05:24:51.434Z,100.00
2022-09-02T05:27:20.689Z,100.00
2022-09-02T05:29:50.982Z,100.00
2022-09-02T05:32:23.029Z,100.00
2022-09-02T05:34:54.218Z,100.00
2022-09-02T05:37:24.611Z,100.00
2022-09-02T05:39:53.227Z,100.00
2022-09-02T05:42:24.883Z,100.00
2022-09-02T05:44:53.952Z,100.00
2022-09-02T05:47:25.541Z,100.00
2022-09-02T05:49:54.894Z,100.00
2022-09-02T05:52:26.319Z,100.00
2022-09-02T05:54:56.960Z,100.00
2022-09-02T05:57:25.720Z,100.00
2022-09-02T06:00:08.537Z,100.00
2022-09-02T06:02:44.014Z,100.00
2022-09-02T06:05:27.546Z,100.00
2022-09-02T06:08:07.776Z,100.00
2022-09-02T06:10:42.292Z,100.00
2022-09-02T06:13:15.765Z,100.00
2022-09-02T06:15:45.112Z,100.00
2022-09-02T06:18:15.932Z,100.00
2022-09-02T06:20:51.304Z,100.00
2022-09-02T06:23:20.741Z,100.00
2022-09-02T06:25:50.664Z,100.00
2022-09-02T06:28:23.044Z,100.00
2022-09-02T06:30:51.825Z,100.00
2022-09-02T06:33:25.482Z,100.00
2022-09-02T06:35:55.246Z,100.00
2022-09-02T06:38:24.139Z,100.00
2022-09-02T06:40:55.660Z,100.00
2022-09-02T06:43:37.645Z,100.00
2022-09-02T06:46:24.001Z,100.00
2022-09-02T06:48:56.095Z,100.00
2022-09-02T06:51:29.611Z,100.00
2022-09-02T06:54:01.586Z,100.00
2022-09-02T06:56:35.024Z,100.00
2022-09-02T06:59:05.087Z,99.70
2022-09-02T07:01:54.421Z,99.28
2022-09-02T07:04:43.224Z,99.87
2022-09-02T07:07:16.316Z,99.31
2022-09-02T07:09:58.718Z,99.15
2022-09-02T07:12:27.866Z,99.37
2022-09-02T07:15:05.190Z,99.70
2022-09-02T07:17:38.418Z,99.16
2022-09-02T07:20:11.607Z,97.20
2022-09-02T07:22:45.623Z,97.88
2022-09-02T07:25:18.725Z,97.81
2022-09-02T07:27:51.349Z,97.11
2022-09-02T07:30:20.618Z,95.62
2022-09-02T07:32:53.865Z,95.37
2022-09-02T07:35:25.122Z,95.44
2022-09-02T07:37:55.316Z,95.59
2022-09-02T07:40:24.598Z,95.41
2022-09-02T07:42:54.564Z,95.45
2022-09-02T07:45:24.668Z,95.30
2022-09-02T07:47:54.086Z,95.78
2022-09-02T07:50:27.261Z,95.41
2022-09-02T07:52:58.372Z,95.36
2022-09-02T07:55:31.173Z,94.95
2022-09-02T07:58:01.015Z,94.51
2022-09-02T08:00:32.230Z,93.72
2022-09-02T08:05:41.343Z,92.31
2022-09-02T08:08:09.733Z,92.27
2022-09-02T08:10:38.694Z,91.93
2022-09-02T08:13:07.083Z,92.35
2022-09-02T08:15:37.050Z,92.63
2022-09-02T08:18:06.886Z,92.86
2022-09-02T08:20:37.094Z,91.75
2022-09-02T08:23:12.415Z,90.90
2022-09-02T08:25:47.013Z,89.55
2022-09-02T08:28:15.381Z,90.35
2022-09-02T08:30:43.698Z,88.90
2022-09-02T08:33:12.375Z,88.41
2022-09-02T08:35:40.890Z,86.99
2022-09-02T08:38:09.229Z,86.39
2022-09-02T08:40:42.050Z,87.34
2022-09-02T08:43:21.714Z,85.28
2022-09-02T08:45:51.851Z,84.96
2022-09-02T08:48:27.997Z,83.43
2022-09-02T08:51:03.456Z,83.47
2022-09-02T08:54:03.359Z,82.94
2022-09-02T08:56:32.353Z,83.32
2022-09-02T08:59:04.938Z,83.42
2022-09-02T09:01:47.630Z,82.45
2022-09-02T09:04:53.614Z,82.35
2022-09-02T09:07:33.004Z,82.70
2022-09-02T09:10:16.747Z,83.51
2022-09-02T09:13:20.435Z,82.62
2022-09-02T09:16:16.579Z,81.44
2022-09-02T09:18:55.813Z,81.17
2022-09-02T09:23:55.724Z,81.07
2022-09-02T09:26:31.048Z,81.71
2022-09-02T09:29:00.025Z,81.80
2022-09-02T09:31:31.460Z,80.52
2022-09-02T09:34:07.537Z,78.19
2022-09-02T09:36:42.226Z,79.68
2022-09-02T09:39:28.246Z,79.52
2022-09-02T09:42:12.381Z,79.92
2022-09-02T09:44:48.183Z,79.33
2022-09-02T09:47:25.774Z,79.18
2022-09-02T09:50:16.377Z,78.77
2022-09-02T09:52:45.461Z,78.32
2022-09-02T09:55:15.674Z,76.77
2022-09-02T09:57:51.448Z,77.25
2022-09-02T10:00:32.573Z,76.77
2022-09-02T10:03:04.581Z,77.24
2022-09-02T10:05:38.962Z,76.32
2022-09-02T10:08:16.570Z,76.19
2022-09-02T10:11:06.363Z,75.35
2022-09-02T10:13:37.004Z,75.82
2022-09-02T10:16:13.179Z,75.13
2022-09-02T10:18:54.915Z,74.57
2022-09-02T10:21:50.546Z,73.08
2022-09-02T10:24:36.430Z,73.17
2022-09-02T10:27:09.486Z,74.18
2022-09-02T10:29:56.143Z,71.34
2022-09-02T10:32:39.625Z,68.95
2022-09-02T10:35:15.032Z,69.19
2022-09-02T10:38:12.356Z,68.15
2022-09-02T10:40:52.865Z,66.68
2022-09-02T10:43:44.146Z,68.81
2022-09-02T10:46:18.459Z,68.91
2022-09-02T10:49:01.694Z,67.99
2022-09-02T10:54:34.235Z,68.86
2022-09-02T10:57:12.860Z,63.56
2022-09-02T10:59:52.482Z,65.20
2022-09-02T11:02:22.731Z,65.18
2022-09-02T11:05:00.744Z,64.91
2022-09-02T11:07:37.813Z,63.62
2022-09-02T11:10:16.275Z,62.65
2022-09-02T11:12:54.960Z,62.95
2022-09-02T11:15:48.798Z,61.96
2022-09-02T11:18:21.592Z,61.83
2022-09-02T11:21:30.508Z,59.21
2022-09-02T11:24:10.299Z,61.03
2022-09-02T11:27:32.295Z,60.29
2022-09-02T11:30:13.611Z,61.47
2022-09-02T11:33:04.067Z,59.65
2022-09-02T11:35:38.770Z,59.34
2022-09-02T11:38:49.006Z,58.38
2022-09-02T11:41:35.828Z,60.66
2022-09-02T11:44:24.290Z,59.70
2022-09-02T11:47:25.306Z,58.22
2022-09-02T11:50:05.857Z,60.19
2022-09-02T11:52:34.115Z,56.53
2022-09-02T11:55:14.021Z,58.91
2022-09-02T11:57:52.439Z,59.00
2022-09-02T12:00:38.864Z,58.30
2022-09-02T12:03:16.832Z,59.51
2022-09-02T12:06:19.302Z,56.04
2022-09-02T12:08:57.182Z,58.05
2022-09-02T12:11:42.190Z,57.26
2022-09-02T12:14:21.466Z,56.65
2022-09-02T12:17:07.583Z,56.38
2022-09-02T12:19:40.544Z,56.51
2022-09-02T12:22:15.700Z,57.17
2022-09-02T12:24:53.792Z,56.78
2022-09-02T12:27:27.330Z,55.80
2022-09-02T12:29:57.623Z,56.18
2022-09-02T12:32:45.330Z,56.00
2022-09-02T12:35:50.209Z,56.15
2022-09-02T12:38:25.600Z,55.83
2022-09-02T12:40:58.775Z,55.29
2022-09-02T12:43:33.484Z,55.89
2022-09-02T12:46:23.040Z,54.99
2022-09-02T12:49:05.739Z,54.98
2022-09-02T12:52:02.532Z,52.31
2022-09-02T12:54:39.875Z,54.08
2022-09-02T12:57:10.005Z,53.60
2022-09-02T12:59:41.369Z,53.09
2022-09-02T13:02:28.060Z,51.70
2022-09-02T13:05:19.861Z,52.35
2022-09-02T13:07:57.207Z,52.73
2022-09-02T13:10:58.342Z,52.84
2022-09-02T13:14:08.506Z,52.07
2022-09-02T13:17:19.064Z,51.92
2022-09-02T13:19:56.761Z,53.42
2022-09-02T13:22:31.103Z,53.00
2022-09-02T13:25:02.639Z,52.93
2022-09-02T13:28:04.968Z,49.85
2022-09-02T13:30:51.590Z,49.30
2022-09-02T13:33:20.074Z,50.12
2022-09-02T13:35:54.437Z,50.27
2022-09-02T13:38:25.400Z,49.79
2022-09-02T13:40:54.111Z,49.78
2022-09-02T13:43:27.118Z,50.68
2022-09-02T13:46:01.020Z,51.02
2022-09-02T13:48:33.078Z,51.02
2022-09-02T13:51:14.282Z,48.98
2022-09-02T13:54:21.538Z,50.46
2022-09-02T13:56:39.746Z,49.21
2022-09-02T13:59:08.079Z,47.99
2022-09-02T14:01:40.273Z,48.58
2022-09-02T14:04:15.675Z,47.38
2022-09-02T14:06:47.622Z,47.25
2022-09-02T14:09:27.235Z,46.81
2022-09-02T14:11:56.907Z,47.87
2022-09-02T14:14:26.137Z,47.63
2022-09-02T14:17:18.102Z,46.69
2022-09-02T14:19:46.733Z,47.76
2022-09-02T14:22:27.599Z,48.53
2022-09-02T14:24:56.837Z,48.53
2022-09-02T14:27:25.661Z,48.32
2022-09-02T14:29:58.329Z,48.23
2022-09-02T14:32:28.189Z,48.62
2022-09-02T14:35:11.704Z,48.70
2022-09-02T14:37:54.089Z,47.26
2022-09-02T14:40:34.022Z,47.34
2022-09-02T14:43:03.491Z,47.97
2022-09-02T14:45:34.935Z,48.12
2022-09-02T14:48:13.716Z,48.80
2022-09-02T14:50:42.587Z,48.86
2022-09-02T14:53:19.826Z,48.98
2022-09-02T14:55:56.954Z,49.23
2022-09-02T14:58:28.161Z,49.35
2022-09-02T15:01:00.054Z,48.46
2022-09-02T15:03:30.632Z,48.61
2022-09-02T15:05:59.675Z,47.54
2022-09-02T15:08:27.905Z,48.31
2022-09-02T15:10:59.874Z,48.76
2022-09-02T15:13:37.251Z,48.49
2022-09-02T15:16:05.861Z,48.78
2022-09-02T15:18:34.200Z,48.09
2022-09-02T15:21:03.346Z,48.26
2022-09-02T15:23:34.802Z,47.67
2022-09-02T15:26:05.234Z,47.93
2022-09-02T15:28:34.033Z,48.44
2022-09-02T15:31:02.764Z,48.15
2022-09-02T15:33:32.357Z,48.33
2022-09-02T15:36:09.910Z,48.11
2022-09-02T15:38:40.963Z,48.49
2022-09-02T15:41:12.860Z,49.75
2022-09-02T15:43:41.911Z,49.85
2022-09-02T15:46:18.945Z,48.68
2022-09-02T15:48:47.981Z,49.41
2022-09-02T15:51:19.020Z,49.74
2022-09-02T15:53:49.211Z,49.78
2022-09-02T15:56:19.788Z,49.58
2022-09-02T15:58:58.000Z,49.68
2022-09-02T16:01:32.170Z,49.80
2022-09-02T16:04:06.135Z,49.88
2022-09-02T16:06:36.449Z,50.74
2022-09-02T16:09:08.992Z,50.77
2022-09-02T16:11:42.107Z,50.89
2022-09-02T16:14:10.874Z,50.80
2022-09-02T16:16:39.607Z,50.88
2022-09-02T16:19:09.086Z,50.94
2022-09-02T16:21:41.412Z,50.40
2022-09-02T16:24:12.815Z,50.24
2022-09-02T16:26:42.277Z,50.60
2022-09-02T16:29:19.557Z,50.39
2022-09-02T16:32:02.238Z,50.66
2022-09-02T16:34:38.102Z,51.33
2022-09-02T16:37:07.545Z,51.72
2022-09-02T16:39:36.256Z,52.03
2022-09-02T16:42:04.995Z,52.24
2022-09-02T16:44:34.224Z,53.18
2022-09-02T16:47:02.726Z,54.30
2022-09-02T16:49:31.921Z,54.86
2022-09-02T16:52:00.774Z,54.45
2022-09-02T16:54:31.419Z,53.39
2022-09-02T16:57:01.357Z,53.79
2022-09-02T16:59:31.633Z,53.28
2022-09-02T17:02:00.134Z,54.04
2022-09-02T17:04:29.466Z,54.41
2022-09-02T17:06:58.082Z,55.07
2022-09-02T17:09:26.345Z,55.63
2022-09-02T17:11:54.768Z,55.28
2022-09-02T17:14:23.261Z,55.65
2022-09-02T17:16:52.389Z,55.42
2022-09-02T17:19:21.791Z,55.67
2022-09-02T17:21:54.955Z,56.11
2022-09-02T17:24:27.954Z,55.90
2022-09-02T17:26:56.715Z,56.12
2022-09-02T17:29:48.822Z,56.75
2022-09-02T17:32:19.327Z,56.21
2022-09-02T17:34:49.927Z,55.96
2022-09-02T17:37:19.414Z,55.83
2022-09-02T17:39:51.060Z,56.07
2022-09-02T17:42:21.559Z,56.08
2022-09-02T17:44:49.932Z,55.97
2022-09-02T17:47:20.776Z,56.25
2022-09-02T17:49:49.547Z,56.09
2022-09-02T17:52:27.129Z,55.89
2022-09-02T17:54:56.100Z,55.74
2022-09-02T17:57:42.440Z,55.57
2022-09-02T18:00:17.283Z,56.35
2022-09-02T18:03:22.603Z,56.74
2022-09-02T18:06:09.427Z,56.73
2022-09-02T18:08:54.646Z,57.12
2022-09-02T18:11:23.093Z,57.45
2022-09-02T18:14:04.374Z,57.87
2022-09-02T18:16:39.222Z,58.43
2022-09-02T18:19:21.997Z,58.52
2022-09-02T18:21:58.835Z,59.30
2022-09-02T18:24:48.886Z,59.46
2022-09-02T18:27:36.850Z,59.65
2022-09-02T18:30:08.187Z,60.13
2022-09-02T18:32:52.016Z,59.97
2022-09-02T18:35:55.647Z,60.14
2022-09-02T18:39:02.748Z,60.37
2022-09-02T18:41:31.009Z,61.10
2022-09-02T18:44:36.154Z,61.20
2022-09-02T18:47:19.961Z,62.32
2022-09-02T18:49:50.939Z,63.17
2022-09-02T18:52:21.232Z,63.57
2022-09-02T18:55:00.672Z,63.98
2022-09-02T18:57:33.695Z,64.22
2022-09-02T19:00:07.661Z,64.53
2022-09-02T19:02:41.654Z,64.20
2022-09-02T19:05:18.963Z,64.78
2022-09-02T19:08:07.439Z,64.79
2022-09-02T19:10:35.967Z,64.78
2022-09-02T19:13:10.292Z,64.07
2022-09-02T19:15:39.713Z,64.23
2022-09-02T19:18:08.032Z,64.38
2022-09-02T19:20:37.836Z,64.98
2022-09-02T19:23:08.268Z,64.66
2022-09-02T19:25:38.706Z,65.05
2022-09-02T19:28:09.823Z,65.26
2022-09-02T19:30:40.530Z,64.70
2022-09-02T19:33:13.746Z,64.67
2022-09-02T19:35:49.007Z,64.65
2022-09-02T19:38:17.996Z,64.92
2022-09-02T19:40:49.536Z,64.58
2022-09-02T19:43:18.615Z,64.79
2022-09-02T19:45:51.311Z,64.67
2022-09-02T19:48:20.174Z,64.80
2022-09-02T19:50:49.003Z,64.76
2022-09-02T19:53:30.143Z,64.74
2022-09-02T19:56:01.741Z,65.09
2022-09-02T19:58:30.029Z,65.01
2022-09-02T20:00:59.280Z,65.31
2022-09-02T20:03:28.829Z,65.19
2022-09-02T20:05:57.315Z,64.98
2022-09-02T20:08:31.278Z,64.33
2022-09-02T20:11:02.418Z,64.48
2022-09-02T20:13:40.304Z,64.57
2022-09-02T20:16:22.381Z,64.02
2022-09-02T20:18:53.075Z,63.62
2022-09-02T20:21:27.554Z,63.57
2022-09-02T20:24:05.112Z,63.25
2022-09-02T20:27:10.605Z,62.58
2022-09-02T20:30:05.259Z,62.14
2022-09-02T20:32:51.837Z,61.88
2022-09-02T20:35:42.023Z,61.37
2022-09-02T20:38:48.473Z,61.79
2022-09-02T20:41:51.890Z,61.77
2022-09-02T20:44:24.631Z,61.59
2022-09-02T20:47:20.127Z,61.47
2022-09-02T20:50:00.208Z,61.66
2022-09-02T20:53:00.267Z,61.34
2022-09-02T20:55:40.146Z,61.84
2022-09-02T20:58:29.906Z,61.52
2022-09-02T21:01:08.244Z,61.08
2022-09-02T21:03:48.651Z,61.28
2022-09-02T21:06:19.050Z,60.99
2022-09-02T21:08:59.763Z,60.76
2022-09-02T21:11:34.563Z,60.89
2022-09-02T21:14:13.231Z,60.12
2022-09-02T21:16:48.024Z,60.86
2022-09-02T21:19:23.404Z,60.73
2022-09-02T21:22:39.277Z,60.62
2022-09-02T21:25:12.779Z,60.89
2022-09-02T21:28:01.932Z,61.06
2022-09-02T21:30:39.663Z,60.56
2022-09-02T21:33:15.995Z,60.65
2022-09-02T21:35:47.479Z,60.77
2022-09-02T21:38:42.531Z,60.80
2022-09-02T21:41:11.055Z,61.16
2022-09-02T21:44:02.425Z,60.92
2022-09-02T21:47:01.463Z,60.96
2022-09-02T21:50:08.014Z,60.22
2022-09-02T21:53:16.978Z,60.41
2022-09-02T21:56:37.170Z,60.67
2022-09-02T21:59:24.030Z,60.95
2022-09-02T22:01:58.517Z,61.12
2022-09-02T22:04:56.075Z,61.39
2022-09-02T22:07:42.046Z,61.42
2022-09-02T22:10:11.133Z,61.96
2022-09-02T22:12:47.754Z,62.31
2022-09-02T22:15:28.067Z,62.52
2022-09-02T22:18:16.794Z,62.35
2022-09-02T22:20:45.672Z,62.63
2022-09-02T22:23:26.225Z,63.31
2022-09-02T22:26:01.451Z,63.49
2022-09-02T22:29:04.022Z,63.95
2022-09-02T22:31:35.896Z,63.44
2022-09-02T22:34:07.611Z,63.62
2022-09-02T22:36:56.659Z,63.83
2022-09-02T22:39:33.972Z,64.32
2022-09-02T22:42:20.090Z,64.60
2022-09-02T22:45:48.691Z,64.89
2022-09-02T22:48:40.190Z,64.62
2022-09-02T22:51:38.785Z,65.12
2022-09-02T22:54:07.124Z,65.24
2022-09-02T22:57:13.978Z,65.58
2022-09-02T23:00:05.947Z,65.96
2022-09-02T23:03:00.408Z,66.24
2022-09-02T23:05:53.801Z,66.06
2022-09-02T23:08:22.646Z,66.21
2022-09-02T23:11:16.481Z,66.45
2022-09-02T23:14:09.224Z,66.90
2022-09-02T23:16:55.817Z,67.43
2022-09-02T23:19:43.745Z,67.26
2022-09-02T23:22:34.288Z,67.59
2022-09-02T23:25:47.704Z,67.98
2022-09-02T23:28:31.232Z,68.67
2022-09-02T23:31:33.251Z,68.60
2022-09-02T23:34:28.927Z,68.92
2022-09-02T23:37:26.893Z,69.61
2022-09-02T23:40:01.388Z,69.38
2022-09-02T23:42:30.412Z,69.98
2022-09-02T23:45:18.588Z,69.81
2022-09-02T23:47:54.685Z,70.21
2022-09-02T23:50:27.436Z,70.05
2022-09-02T23:53:09.101Z,70.69
2022-09-02T23:56:11.155Z,70.38
2022-09-02T23:59:16.962Z,71.17
